KGNV

Gainesville Regional Airport

Gainesville, Florida, USA
METAR KGNV 220953Z AUTO 11003KT 5SM BR OVC006 22/21 A3009 RMK AO2 CIG 002V008 SLP185 T02220211
Observed Flight Rules
May-22 @ 09:53 UTC (20 minutes ago) Instrument Flight Rules
Wind Visibility Clouds Conditions
110° at 3 knots 5 miles
  • Overcast at 600' AGL
  • Mist
Temperatures Readings
Current 22°C / 72°F
Dewpoint 21°C / 70°F
Humidity 94%
Altimeter 30.09" Hg
Pressure 1018.5 hPa
Elevation 45
METAR KGNV 220953Z AUTO 11003KT 5SM BR OVC006 22/21 A3009 RMK AO2 CIG 002V008 SLP185 T02220211
Observed Flight Rules
May-22 @ 09:53 UTC
(20 minutes ago)
IFR
Wind Visibility
110° at 3 knots 5 miles
Clouds
  • Overcast at 600' AGL
Conditions
  • Mist
Temperature Dewpoint
22°C / 72°F 21°C / 70°F
Humidity Altimeter Pressure
94% 30.09" Hg 1018.5 hPa